Time;durP1;ratioP1;P1;durP2;ratioP2;P2;SDS_P1;SDS_P2;PMS_P1;PMS_P2;Temp;Humidity;BMP_temperature;BMP_pressure;BME280_temperature;BME280_humidity;BME280_pressure;Samples;Min_cycle;Max_cycle;Signal;HPM_P1;HPM_P2
2021/07/23 00:02:16;;;;;;;20.25;7.60;;;;;;;16.01;73.74;100582.80;126111;1093;26351;-60
2021/07/23 00:04:47;;;;;;;18.30;7.50;;;;;;;16.01;73.29;100582.03;125762;1093;24932;-58
2021/07/23 00:07:18;;;;;;;21.20;8.00;;;;;;;16.01;73.93;100587.66;125804;1093;22934;-57
2021/07/23 00:09:50;;;;;;;19.40;7.00;;;;;;;15.97;73.66;100570.99;125788;1093;25852;-61
2021/07/23 00:12:21;;;;;;;17.40;7.05;;;;;;;15.96;73.68;100577.14;125745;1093;22878;-59
2021/07/23 00:14:59;;;;;;;18.90;7.20;;;;;;;15.94;73.69;100574.84;125709;1093;22824;-58
2021/07/23 00:17:31;;;;;;;19.80;7.17;;;;;;;15.90;73.97;100581.98;125767;1093;22803;-59
2021/07/23 00:20:03;;;;;;;20.15;7.15;;;;;;;15.88;74.10;100579.69;125749;1093;24199;-58
2021/07/23 00:22:35;;;;;;;18.97;7.13;;;;;;;15.87;74.05;100575.32;125942;1093;24650;-58
2021/07/23 00:25:07;;;;;;;18.60;7.53;;;;;;;15.85;74.16;100571.50;125745;1092;24441;-58
2021/07/23 00:27:39;;;;;;;22.37;8.23;;;;;;;15.81;74.29;100576.58;125900;1092;26558;-58
2021/07/23 00:30:14;;;;;;;19.90;7.70;;;;;;;15.79;74.24;100576.31;125923;1093;22809;-57
2021/07/23 00:32:45;;;;;;;19.40;6.60;;;;;;;15.76;74.33;100578.13;125831;1093;22861;-56
2021/07/23 00:35:17;;;;;;;22.23;7.83;;;;;;;15.74;74.83;100579.89;125725;1090;26712;-59
2021/07/23 00:37:48;;;;;;;19.77;7.40;;;;;;;15.73;74.59;100575.53;125769;1093;26252;-59
2021/07/23 00:40:20;;;;;;;20.05;7.20;;;;;;;15.73;74.65;100579.13;125711;1093;25868;-55
2021/07/23 00:42:51;;;;;;;19.60;7.15;;;;;;;15.70;75.07;100580.15;125754;1093;22941;-58
2021/07/23 00:45:22;;;;;;;22.77;9.10;;;;;;;15.68;75.07;100576.30;125736;1093;28893;-61
2021/07/23 00:47:57;;;;;;;19.90;8.25;;;;;;;15.68;74.99;100581.92;125714;1093;22835;-58
2021/07/23 00:50:31;;;;;;;19.80;8.05;;;;;;;15.65;75.01;100578.07;125706;1093;22826;-59
2021/07/23 00:53:04;;;;;;;20.75;7.95;;;;;;;15.63;74.97;100574.99;125785;1093;22795;-57
2021/07/23 00:55:35;;;;;;;18.73;7.97;;;;;;;15.59;75.37;100574.47;125735;1093;22828;-61
2021/07/23 00:58:08;;;;;;;20.25;8.00;;;;;;;15.55;75.15;100571.13;125730;1093;22827;-59
2021/07/23 01:00:40;;;;;;;21.90;8.50;;;;;;;15.53;74.93;100575.72;125879;1093;22755;-59
2021/07/23 01:03:12;;;;;;;21.65;8.00;;;;;;;15.50;75.32;100565.48;125798;1092;22803;-58
2021/07/23 01:05:43;;;;;;;22.35;8.10;;;;;;;15.46;75.20;100576.22;125959;1093;22964;-58
2021/07/23 01:08:16;;;;;;;23.30;7.60;;;;;;;15.44;75.35;100578.73;125858;1093;22758;-57
2021/07/23 01:10:48;;;;;;;21.40;8.10;;;;;;;15.41;75.49;100575.63;125969;1093;24483;-59
2021/07/23 01:13:20;;;;;;;19.60;7.30;;;;;;;15.41;75.37;100577.69;125727;1093;22777;-58
2021/07/23 01:15:52;;;;;;;20.30;7.43;;;;;;;15.39;75.12;100578.17;126111;1092;22793;-59
2021/07/23 01:18:23;;;;;;;18.60;7.05;;;;;;;15.40;75.23;100576.14;125902;1093;22945;-58
2021/07/23 01:20:56;;;;;;;18.65;7.40;;;;;;;15.37;75.63;100575.09;125731;1093;27288;-60
2021/07/23 01:23:33;;;;;;;18.70;7.90;;;;;;;15.36;75.27;100578.42;125799;1093;22986;-57
2021/07/23 01:26:06;;;;;;;18.20;7.25;;;;;;;15.34;75.71;100576.13;125863;1093;22776;-58
2021/07/23 01:28:40;;;;;;;20.95;8.50;;;;;;;15.33;75.46;100571.75;125818;1093;22774;-60
2021/07/23 01:31:11;;;;;;;20.90;7.40;;;;;;;15.33;76.10;100574.56;125766;1093;26018;-59
2021/07/23 01:33:43;;;;;;;23.43;8.70;;;;;;;15.30;76.30;100572.00;125708;1093;26271;-56
2021/07/23 01:36:15;;;;;;;21.90;8.25;;;;;;;15.28;76.18;100571.73;125823;1093;27224;-59
2021/07/23 01:38:48;;;;;;;22.30;8.40;;;;;;;15.27;76.05;100568.15;125806;1093;22777;-57
2021/07/23 01:41:20;;;;;;;25.97;9.23;;;;;;;15.26;76.22;100569.44;125773;1092;25558;-58
2021/07/23 01:43:52;;;;;;;27.95;10.00;;;;;;;15.26;76.45;100565.84;125791;1093;22783;-59
2021/07/23 01:46:24;;;;;;;22.90;8.50;;;;;;;15.25;76.62;100569.92;125817;1092;22780;-58
2021/07/23 01:48:55;;;;;;;21.50;8.65;;;;;;;15.24;76.51;100565.58;125898;1093;22773;-55
2021/07/23 01:51:27;;;;;;;21.80;7.90;;;;;;;15.24;77.18;100565.58;125767;1093;22916;-58
2021/07/23 01:53:59;;;;;;;25.15;8.55;;;;;;;15.24;76.68;100565.58;125852;1092;22829;-59
2021/07/23 01:56:31;;;;;;;19.80;8.20;;;;;;;15.23;77.09;100559.18;125692;1093;24478;-59
2021/07/23 01:59:02;;;;;;;21.85;8.55;;;;;;;15.23;77.27;100561.99;125874;1093;22800;-59
2021/07/23 02:01:34;;;;;;;20.87;7.27;;;;;;;15.25;77.23;100567.88;125756;1092;22795;-57
2021/07/23 02:04:06;;;;;;;19.65;8.40;;;;;;;15.26;77.23;100560.22;125780;1093;22834;-58
2021/07/23 02:06:38;;;;;;;20.55;8.05;;;;;;;15.26;77.38;100560.22;125736;1093;22807;-59
2021/07/23 02:09:11;;;;;;;19.65;7.85;;;;;;;15.28;77.58;100561.27;125714;1092;22773;-57
2021/07/23 02:11:42;;;;;;;19.60;7.37;;;;;;;15.30;77.68;100563.56;125776;1093;22804;-58
2021/07/23 02:14:15;;;;;;;23.60;7.50;;;;;;;15.32;77.52;100564.61;125851;1093;22813;-58
2021/07/23 02:16:46;;;;;;;18.75;7.35;;;;;;;15.31;77.88;100571.49;125810;1093;22780;-58
2021/07/23 02:19:18;;;;;;;17.75;6.85;;;;;;;15.32;78.05;100563.83;125833;1092;22847;-56
2021/07/23 02:21:50;;;;;;;21.30;8.40;;;;;;;15.32;77.95;100563.83;125794;1093;22776;-57
2021/07/23 02:24:21;;;;;;;24.35;8.15;;;;;;;15.31;78.08;100563.05;125795;1091;22806;-57
2021/07/23 02:26:54;;;;;;;22.77;8.23;;;;;;;15.32;77.93;100558.20;125702;1093;22811;-60
2021/07/23 02:29:28;;;;;;;22.90;8.47;;;;;;;15.33;78.12;100562.57;125721;1093;27693;-59
2021/07/23 02:32:00;;;;;;;21.40;7.80;;;;;;;15.35;78.09;100571.27;125695;1092;22774;-57
2021/07/23 02:34:32;;;;;;;21.55;8.25;;;;;;;15.35;78.36;100562.84;125784;1093;22784;-58
2021/07/23 02:37:04;;;;;;;21.20;8.25;;;;;;;15.34;78.23;100556.43;125762;1092;27224;-58
2021/07/23 02:39:37;;;;;;;18.63;7.40;;;;;;;15.34;78.26;100558.47;125870;1093;23019;-59
2021/07/23 02:42:09;;;;;;;21.03;7.67;;;;;;;15.34;78.20;100559.24;125719;1092;22934;-55
2021/07/23 02:44:41;;;;;;;21.55;7.95;;;;;;;15.35;78.31;100563.58;125679;1093;22800;-58
2021/07/23 02:47:12;;;;;;;19.00;7.00;;;;;;;15.37;78.10;100549.03;125727;1093;22780;-56
2021/07/23 02:49:44;;;;;;;20.70;8.50;;;;;;;15.38;78.41;100559.77;125696;1093;22801;-56
2021/07/23 02:52:16;;;;;;;20.60;7.65;;;;;;;15.40;78.68;100551.59;126072;1093;22773;-60
2021/07/23 02:54:48;;;;;;;23.10;8.20;;;;;;;15.40;78.83;100554.41;125702;1093;22781;-59
2021/07/23 02:57:19;;;;;;;20.93;7.87;;;;;;;15.41;78.44;100552.38;125809;1093;26722;-59
2021/07/23 02:59:51;;;;;;;23.35;8.25;;;;;;;15.40;78.84;100551.59;125724;1092;22853;-55
2021/07/23 03:02:22;;;;;;;19.50;8.60;;;;;;;15.40;78.70;100548.78;125699;1093;22788;-58
2021/07/23 03:04:54;;;;;;;18.70;7.90;;;;;;;15.42;78.71;100545.45;125751;1093;25990;-58
2021/07/23 03:07:26;;;;;;;22.00;7.95;;;;;;;15.41;78.75;100539.05;125833;1092;24268;-58
2021/07/23 03:09:57;;;;;;;17.70;7.30;;;;;;;15.41;78.58;100550.30;125695;1093;24443;-60
2021/07/23 03:12:28;;;;;;;18.80;7.10;;;;;;;15.43;79.05;100549.08;125636;1093;22959;-57
2021/07/23 03:15:01;;;;;;;22.65;6.80;;;;;;;15.44;78.64;100547.78;125817;1093;23036;-61
2021/07/23 03:17:33;;;;;;;18.80;6.95;;;;;;;15.43;78.84;100544.23;125869;1093;26015;-56
2021/07/23 03:20:06;;;;;;;23.07;7.80;;;;;;;15.45;79.35;100536.05;125807;1093;22777;-58
2021/07/23 03:22:37;;;;;;;18.35;7.60;;;;;;;15.46;78.73;100531.20;125780;1093;22786;-61
2021/07/23 03:25:12;;;;;;;22.65;8.10;;;;;;;15.47;79.13;100527.88;125728;1093;22794;-61
2021/07/23 03:27:43;;;;;;;21.70;8.05;;;;;;;15.46;78.84;100529.13;125797;1093;22757;-57
2021/07/23 03:30:17;;;;;;;22.45;8.35;;;;;;;15.49;79.18;100538.61;125764;1093;22929;-59
2021/07/23 03:32:48;;;;;;;24.20;9.00;;;;;;;15.49;79.13;100538.61;125700;1093;22778;-58
2021/07/23 03:35:20;;;;;;;20.70;7.50;;;;;;;15.52;79.30;100531.98;125676;1093;24736;-59
2021/07/23 03:37:51;;;;;;;19.60;8.60;;;;;;;15.52;79.56;100529.92;125733;1093;24440;-56
2021/07/23 03:40:23;;;;;;;19.15;7.65;;;;;;;15.55;79.43;100528.14;125709;1093;27419;-58
2021/07/23 03:42:55;;;;;;;21.43;8.03;;;;;;;15.56;79.12;100536.07;125843;1093;22800;-58
2021/07/23 03:45:26;;;;;;;19.25;8.00;;;;;;;15.56;79.57;100527.63;125704;1093;22934;-59
2021/07/23 03:47:58;;;;;;;26.70;8.70;;;;;;;15.57;79.21;100526.37;125771;1093;27506;-58
2021/07/23 03:50:30;;;;;;;19.37;7.33;;;;;;;15.59;79.34;100523.04;125706;1093;25881;-59
2021/07/23 03:53:01;;;;;;;20.00;7.70;;;;;;;15.60;79.60;100524.59;125713;1093;22800;-56
2021/07/23 03:55:34;;;;;;;18.20;8.10;;;;;;;15.63;79.14;100520.75;125593;1093;22864;-59
2021/07/23 03:58:06;;;;;;;22.83;7.77;;;;;;;15.63;79.20;100524.34;125651;1092;27443;-60
2021/07/23 04:00:37;;;;;;;20.70;7.70;;;;;;;15.64;79.69;100519.48;125684;1093;22811;-61
2021/07/23 04:03:08;;;;;;;20.80;7.45;;;;;;;15.65;79.71;100516.16;125784;1093;22797;-58
2021/07/23 04:05:40;;;;;;;18.70;7.55;;;;;;;15.67;79.23;100519.23;125687;1092;22800;-58
2021/07/23 04:08:11;;;;;;;21.70;7.75;;;;;;;15.69;79.66;100513.86;125701;1093;22782;-56
2021/07/23 04:10:42;;;;;;;20.05;8.05;;;;;;;15.71;79.61;100511.31;125749;1092;22800;-60
2021/07/23 04:13:14;;;;;;;20.10;8.30;;;;;;;15.73;79.87;100513.61;125744;1093;27259;-56
2021/07/23 04:15:45;;;;;;;18.45;8.35;;;;;;;15.74;79.85;100513.12;125692;1093;22797;-59
2021/07/23 04:18:17;;;;;;;22.00;8.05;;;;;;;15.74;79.90;100513.12;125648;1092;22809;-62
2021/07/23 04:20:49;;;;;;;19.80;7.55;;;;;;;15.77;80.02;100514.13;125752;1093;22780;-61
2021/07/23 04:23:21;;;;;;;25.25;8.40;;;;;;;15.80;80.30;100522.34;125821;1093;22897;-59
2021/07/23 04:25:52;;;;;;;19.30;7.93;;;;;;;15.81;80.10;100517.46;126194;1093;26324;-57
2021/07/23 04:28:23;;;;;;;21.00;7.80;;;;;;;15.84;80.17;100511.60;125746;1093;26044;-59
2021/07/23 04:30:55;;;;;;;27.53;9.07;;;;;;;15.87;80.24;100509.82;125766;1092;24554;-58
2021/07/23 04:33:26;;;;;;;18.13;8.33;;;;;;;15.90;80.29;100517.23;125789;1092;25967;-57
2021/07/23 04:35:58;;;;;;;19.40;7.90;;;;;;;15.93;80.58;100507.78;125759;1093;22777;-60
2021/07/23 04:38:29;;;;;;;23.90;9.27;;;;;;;15.96;80.69;100506.75;125781;1093;22777;-59
2021/07/23 04:41:01;;;;;;;23.23;9.17;;;;;;;15.99;80.51;100505.73;125812;1093;22799;-58
2021/07/23 04:43:33;;;;;;;21.93;9.37;;;;;;;16.03;80.62;100514.70;125846;1093;24477;-58
2021/07/23 04:46:04;;;;;;;25.40;9.15;;;;;;;16.07;80.46;100503.95;125772;1093;22814;-58
2021/07/23 04:48:36;;;;;;;23.95;8.90;;;;;;;16.13;80.76;100508.31;125723;1093;22829;-58
2021/07/23 04:51:07;;;;;;;22.80;9.40;;;;;;;16.18;80.52;100507.53;125693;1093;23550;-60
2021/07/23 04:53:39;;;;;;;25.10;9.75;;;;;;;16.23;80.44;100506.00;125800;1093;22774;-61
2021/07/23 04:56:11;;;;;;;22.85;9.30;;;;;;;16.29;80.54;100512.41;125810;1093;24187;-59
2021/07/23 04:58:44;;;;;;;21.00;8.90;;;;;;;16.33;80.50;100509.32;125744;1092;22801;-58
2021/07/23 05:01:16;;;;;;;21.40;8.45;;;;;;;16.37;80.82;100504.20;125827;1092;22742;-65
2021/07/23 05:03:47;;;;;;;25.05;10.40;;;;;;;16.40;80.83;100509.59;125869;1092;22777;-58
2021/07/23 05:06:19;;;;;;;27.15;10.20;;;;;;;16.45;80.50;100505.25;125778;1092;22773;-58
2021/07/23 05:08:51;;;;;;;22.05;9.25;;;;;;;16.52;80.57;100499.10;126038;1093;22831;-59
2021/07/23 05:11:23;;;;;;;23.70;8.80;;;;;;;16.58;80.83;100495.00;126094;1093;22820;-58
2021/07/23 05:13:55;;;;;;;26.70;9.55;;;;;;;16.65;80.53;100502.94;126041;1091;25822;-58
2021/07/23 05:16:26;;;;;;;29.60;10.53;;;;;;;16.70;80.82;100502.16;126003;1093;23928;-59
2021/07/23 05:18:58;;;;;;;22.70;9.00;;;;;;;16.77;80.93;100498.05;126044;1092;22800;-58
2021/07/23 05:21:31;;;;;;;21.85;9.00;;;;;;;16.84;80.62;100491.89;126571;1092;24437;-59
2021/07/23 05:24:05;;;;;;;25.60;10.40;;;;;;;16.92;81.15;100496.45;125914;1093;22776;-59
2021/07/23 05:26:39;;;;;;;22.55;9.80;;;;;;;17.02;80.68;100499.00;129835;1093;23030;-60
2021/07/23 05:29:11;;;;;;;24.05;9.40;;;;;;;17.10;81.33;100495.13;129865;1093;22481;-59
2021/07/23 05:31:44;;;;;;;25.95;10.40;;;;;;;17.18;80.81;100496.13;129845;1093;22499;-61
2021/07/23 05:34:15;;;;;;;24.75;10.80;;;;;;;17.28;80.76;100490.95;129857;1093;22547;-60
2021/07/23 05:36:46;;;;;;;26.15;10.45;;;;;;;17.38;81.02;100495.03;126792;1093;22798;-59
2021/07/23 05:39:17;;;;;;;22.87;10.77;;;;;;;17.46;80.94;100496.02;125905;1092;26299;-57
2021/07/23 05:41:50;;;;;;;23.05;10.75;;;;;;;17.53;80.95;100498.30;125985;1092;22778;-58
2021/07/23 05:44:21;;;;;;;26.70;10.00;;;;;;;17.62;80.67;100495.19;125981;1092;22785;-58
2021/07/23 05:46:53;;;;;;;27.00;10.60;;;;;;;17.70;80.80;100502.58;126141;1091;22789;-60
2021/07/23 05:49:24;;;;;;;25.50;10.15;;;;;;;17.77;80.64;100495.62;126113;1093;25341;-59
2021/07/23 05:51:56;;;;;;;23.00;9.05;;;;;;;17.87;80.31;100498.88;126080;1092;22777;-59
2021/07/23 05:54:29;;;;;;;22.45;8.50;;;;;;;17.95;80.21;100499.85;126202;1093;27364;-58
2021/07/23 05:57:01;;;;;;;23.45;8.95;;;;;;;18.02;80.19;100499.30;126032;1093;22810;-59
2021/07/23 05:59:33;;;;;;;23.60;9.40;;;;;;;18.09;80.23;100507.97;125985;1093;27288;-59
2021/07/23 06:02:13;;;;;;;21.30;8.40;;;;;;;18.17;79.76;100500.45;125902;1093;22788;-58
2021/07/23 06:04:44;;;;;;;27.05;9.55;;;;;;;18.24;79.81;100501.95;125960;1093;22782;-58
2021/07/23 06:07:18;;;;;;;21.30;8.77;;;;;;;18.30;79.97;100500.62;125913;1092;25730;-58
2021/07/23 06:09:51;;;;;;;22.83;9.07;;;;;;;18.40;79.92;100498.21;125963;1092;22804;-58
2021/07/23 06:12:23;;;;;;;22.10;9.50;;;;;;;18.45;79.86;100497.44;125998;1093;22807;-60
2021/07/23 06:14:54;;;;;;;20.73;8.33;;;;;;;18.51;79.77;100504.58;125945;1093;26373;-58
2021/07/23 06:17:25;;;;;;;24.35;9.20;;;;;;;18.58;79.62;100496.81;125860;1093;22807;-59
2021/07/23 06:19:57;;;;;;;23.00;9.00;;;;;;;18.64;79.50;100497.52;125919;1093;23198;-59
2021/07/23 06:22:28;;;;;;;24.80;8.95;;;;;;;18.68;79.42;100498.77;125992;1093;27137;-58
2021/07/23 06:24:59;;;;;;;28.40;8.85;;;;;;;18.75;79.33;100494.56;125962;1093;22834;-58
2021/07/23 06:27:31;;;;;;;22.77;8.43;;;;;;;18.82;79.39;100506.08;125951;1092;27199;-60
2021/07/23 06:30:04;;;;;;;22.00;7.25;;;;;;;18.94;79.58;100499.00;126105;1093;23402;-60
2021/07/23 06:32:35;;;;;;;22.00;7.85;;;;;;;19.04;78.89;100500.16;126013;1092;22806;-58
2021/07/23 06:35:10;;;;;;;19.87;6.97;;;;;;;19.11;78.24;100498.81;125950;1092;24426;-56
2021/07/23 06:37:42;;;;;;;21.97;6.47;;;;;;;19.17;78.27;100505.17;125855;1092;24424;-60
2021/07/23 06:40:16;;;;;;;23.00;7.40;;;;;;;19.25;78.33;100497.61;125926;1093;24461;-60
2021/07/23 06:42:47;;;;;;;19.80;7.70;;;;;;;19.37;78.62;100495.45;126036;1092;23562;-60
2021/07/23 06:45:19;;;;;;;17.95;7.73;;;;;;;19.44;78.42;100492.77;125873;1093;24305;-58
2021/07/23 06:47:50;;;;;;;20.38;7.45;;;;;;;19.51;78.27;100495.00;125914;1093;26292;-60
2021/07/23 06:50:22;;;;;;;17.90;6.75;;;;;;;19.60;77.63;100497.44;125990;1092;22865;-57
2021/07/23 06:52:54;;;;;;;17.18;6.43;;;;;;;19.72;77.44;100498.06;125898;1092;22774;-60
2021/07/23 06:55:26;;;;;;;15.55;6.45;;;;;;;19.83;77.46;100492.22;125970;1093;22734;-61
2021/07/23 06:58:00;;;;;;;20.43;5.83;;;;;;;19.93;76.77;100501.86;125926;1093;22781;-60
2021/07/23 07:00:31;;;;;;;16.50;5.43;;;;;;;20.04;76.16;100496.03;126130;1091;26264;-58
2021/07/23 07:03:06;;;;;;;19.70;6.85;;;;;;;20.14;75.85;100497.92;125866;1092;22831;-59
2021/07/23 07:05:38;;;;;;;20.80;6.28;;;;;;;20.25;75.47;100496.24;125980;1092;27151;-59
2021/07/23 07:08:10;;;;;;;16.13;5.60;;;;;;;20.33;75.12;100489.41;125956;1091;24429;-61
2021/07/23 07:10:39;;;;;;;16.05;5.08;;;;;;;;;;125986;1092;22777;-59
2021/07/23 07:13:11;;;;;;;15.63;4.70;;;;;;;20.50;74.33;100492.72;125968;1093;25894;-58
2021/07/23 07:15:45;;;;;;;13.93;5.05;;;;;;;20.59;73.79;100494.35;126036;1093;22947;-59
2021/07/23 07:18:16;;;;;;;13.73;5.00;;;;;;;20.68;73.75;100494.72;126057;1092;22804;-61
2021/07/23 07:20:48;;;;;;;20.33;5.30;;;;;;;20.79;72.62;100490.91;125967;1092;27259;-60
2021/07/23 07:23:20;;;;;;;13.77;5.17;;;;;;;20.87;72.19;100500.30;126002;1092;28305;-56
2021/07/23 07:25:55;;;;;;;13.78;4.55;;;;;;;20.93;72.22;100498.89;125927;1093;22806;-60
2021/07/23 07:28:26;;;;;;;14.18;4.08;;;;;;;21.03;70.95;100495.63;125949;1093;24197;-60
2021/07/23 07:30:59;;;;;;;14.10;4.13;;;;;;;21.10;70.78;100486.47;125949;1092;25793;-59
2021/07/23 07:33:30;;;;;;;13.35;4.30;;;;;;;21.18;71.22;100490.95;126135;1092;24458;-60
2021/07/23 07:36:02;;;;;;;17.13;4.30;;;;;;;21.27;70.87;100490.48;125962;1092;22776;-58
2021/07/23 07:38:36;;;;;;;12.68;3.50;;;;;;;21.36;70.26;100486.44;125919;1093;27215;-59
2021/07/23 07:41:07;;;;;;;17.43;5.03;;;;;;;21.49;70.39;100494.95;125844;1093;22758;-57
2021/07/23 07:43:39;;;;;;;11.20;3.80;;;;;;;21.58;69.36;100491.66;125890;1092;22779;-61
2021/07/23 07:46:10;;;;;;;16.20;4.18;;;;;;;21.65;69.18;100486.05;125914;1093;25202;-61
2021/07/23 07:48:42;;;;;;;13.65;4.20;;;;;;;21.70;68.69;100493.67;126035;1095;25858;-58
2021/07/23 07:51:14;;;;;;;13.33;4.65;;;;;;;21.80;68.04;100484.70;125879;1093;22803;-59
2021/07/23 07:53:45;;;;;;;14.18;5.20;;;;;;;21.86;68.16;100488.20;126023;1092;22757;-61
2021/07/23 07:56:18;;;;;;;18.67;5.47;;;;;;;21.95;68.01;100494.20;126278;1092;22813;-60
2021/07/23 07:58:50;;;;;;;15.48;4.53;;;;;;;22.00;66.99;100483.98;126075;1093;22905;-58
2021/07/23 08:01:22;;;;;;;13.37;4.17;;;;;;;22.07;66.81;100491.84;126084;1093;22794;-60
2021/07/23 08:03:53;;;;;;;13.78;4.20;;;;;;;22.11;66.22;100487.34;125913;1093;22804;-60
2021/07/23 08:06:27;;;;;;;13.83;4.65;;;;;;;22.19;66.50;100488.18;125916;1093;22803;-58
2021/07/23 08:09:04;;;;;;;12.20;3.45;;;;;;;22.29;65.71;100489.22;125931;1093;22780;-58
2021/07/23 08:11:36;;;;;;;13.20;3.93;;;;;;;22.35;65.26;100483.38;125943;1091;27220;-61
2021/07/23 08:14:08;;;;;;;13.40;3.68;;;;;;;22.41;64.76;100486.84;126177;1092;24178;-60
2021/07/23 08:16:39;;;;;;;11.15;3.83;;;;;;;22.44;64.21;100485.75;125940;1092;22807;-60
2021/07/23 08:19:11;;;;;;;12.50;4.15;;;;;;;22.46;63.45;100486.72;126128;1093;22777;-59
2021/07/23 08:21:43;;;;;;;15.30;4.53;;;;;;;22.54;63.54;100486.78;126084;1093;22776;-58
2021/07/23 08:24:15;;;;;;;12.95;3.80;;;;;;;22.61;62.47;100488.19;126016;1091;22778;-59
2021/07/23 08:26:48;;;;;;;13.08;4.33;;;;;;;22.61;62.06;100488.96;125997;1093;22786;-59
2021/07/23 08:29:20;;;;;;;11.93;3.50;;;;;;;22.67;62.27;100483.88;125977;1093;22803;-59
2021/07/23 08:31:53;;;;;;;15.33;4.93;;;;;;;22.75;61.67;100493.23;125921;1093;22860;-61
2021/07/23 08:34:24;;;;;;;10.25;3.40;;;;;;;22.87;62.36;100485.92;125929;1093;22828;-58
2021/07/23 08:36:57;;;;;;;9.30;3.23;;;;;;;22.99;61.85;100489.98;125898;1092;22804;-59
2021/07/23 08:39:29;;;;;;;10.13;3.13;;;;;;;23.09;61.50;100496.68;125910;1093;26286;-59
2021/07/23 08:42:21;;;;;;;12.33;3.55;;;;;;;23.12;60.19;100491.95;126043;1092;26268;-59
2021/07/23 08:44:58;;;;;;;10.80;3.00;;;;;;;23.16;59.75;100487.43;125839;1091;24021;-58
2021/07/23 08:47:30;;;;;;;11.97;3.87;;;;;;;23.20;59.13;100487.83;125976;1091;22865;-60
2021/07/23 08:50:01;;;;;;;10.73;3.57;;;;;;;23.28;59.61;100493.56;126073;1093;22816;-60
2021/07/23 08:52:45;;;;;;;11.20;3.45;;;;;;;23.38;58.93;100483.22;125943;1093;22781;-60
2021/07/23 08:55:17;;;;;;;9.73;3.47;;;;;;;23.47;58.04;100470.50;125944;1092;25881;-61
2021/07/23 08:57:50;;;;;;;10.65;3.45;;;;;;;23.54;58.17;100479.10;125973;1092;22748;-61
2021/07/23 09:00:23;;;;;;;10.68;3.40;;;;;;;23.62;57.10;100470.56;125906;1093;22803;-59
2021/07/23 09:02:56;;;;;;;10.83;2.90;;;;;;;23.67;56.79;100481.05;126019;1092;24554;-58
2021/07/23 09:05:31;;;;;;;10.03;3.63;;;;;;;23.71;56.13;100478.59;125956;1093;22814;-61
2021/07/23 09:08:11;;;;;;;12.35;3.20;;;;;;;23.72;56.59;100477.25;126030;1093;22777;-60
2021/07/23 09:10:44;;;;;;;10.87;2.67;;;;;;;23.74;55.50;100469.66;125841;1093;22804;-59
2021/07/23 09:13:23;;;;;;;13.23;3.15;;;;;;;23.81;55.87;100465.31;125897;1093;22781;-60
2021/07/23 09:15:57;;;;;;;15.90;3.07;;;;;;;23.85;54.85;100465.70;126006;1093;22934;-59
2021/07/23 09:18:33;;;;;;;9.27;2.83;;;;;;;23.81;54.62;100466.08;126099;1093;24852;-60
2021/07/23 09:21:06;;;;;;;14.48;3.95;;;;;;;23.83;54.70;100465.50;125824;1093;24467;-61
2021/07/23 09:23:40;;;;;;;13.25;3.53;;;;;;;23.87;54.19;100454.49;125867;1093;22868;-60
2021/07/23 09:26:19;;;;;;;7.85;2.65;;;;;;;23.89;54.68;100472.56;125873;1093;22767;-61
2021/07/23 09:28:52;;;;;;;11.50;3.90;;;;;;;23.95;54.13;100461.73;125894;1093;22801;-61
2021/07/23 09:31:28;;;;;;;9.80;2.68;;;;;;;23.99;53.16;100470.67;125939;1093;27776;-60
2021/07/23 09:33:59;;;;;;;11.23;3.20;;;;;;;24.02;53.53;100457.38;126036;1093;26041;-60
2021/07/23 09:36:31;;;;;;;11.47;3.47;;;;;;;24.09;53.76;100459.49;125871;1092;22777;-59
2021/07/23 09:39:06;;;;;;;13.35;3.48;;;;;;;24.17;53.30;100457.41;125824;1092;22861;-61
2021/07/23 09:41:38;;;;;;;9.60;3.03;;;;;;;24.24;53.23;100456.66;126160;1092;22800;-62
2021/07/23 09:44:12;;;;;;;11.45;3.38;;;;;;;24.29;52.93;100460.67;126155;1093;22776;-61
2021/07/23 09:46:46;;;;;;;8.97;2.70;;;;;;;24.39;52.91;100458.77;125859;1093;28535;-61
2021/07/23 09:49:26;;;;;;;13.00;3.47;;;;;;;24.42;52.21;100461.23;125911;1092;22781;-60
2021/07/23 09:52:02;;;;;;;14.43;3.70;;;;;;;24.36;51.37;100451.33;125960;1093;22777;-59
2021/07/23 09:54:34;;;;;;;11.37;3.67;;;;;;;24.30;51.70;100448.67;125984;1093;22796;-60
2021/07/23 09:57:11;;;;;;;9.70;2.90;;;;;;;24.36;51.68;100451.33;125932;1093;22776;-62
2021/07/23 09:59:47;;;;;;;11.23;2.95;;;;;;;24.33;50.89;100443.93;125908;1093;22836;-62
2021/07/23 10:02:24;;;;;;;12.25;3.43;;;;;;;24.27;51.14;100446.95;125898;1093;22803;-59
2021/07/23 10:05:08;;;;;;;10.93;3.33;;;;;;;24.32;51.24;100445.24;125922;1093;24522;-60
2021/07/23 10:07:42;;;;;;;12.30;3.90;;;;;;;24.42;51.26;100449.81;126015;1093;22941;-61
2021/07/23 10:10:14;;;;;;;10.65;3.15;;;;;;;24.44;50.62;100441.44;126002;1093;24481;-59
2021/07/23 10:12:47;;;;;;;12.85;3.95;;;;;;;24.35;49.35;100444.88;126021;1093;25951;-60
2021/07/23 10:15:19;;;;;;;12.60;3.43;;;;;;;24.24;49.93;100442.41;125881;1093;22825;-60
2021/07/23 10:17:55;;;;;;;10.70;3.28;;;;;;;24.22;49.59;100433.66;126036;1093;22780;-60
2021/07/23 10:20:27;;;;;;;10.05;3.38;;;;;;;24.23;49.59;100442.98;125959;1093;22781;-60
2021/07/23 10:22:58;;;;;;;10.10;3.38;;;;;;;24.28;49.25;100431.37;125922;1093;26274;-61
2021/07/23 10:25:34;;;;;;;10.73;3.45;;;;;;;24.25;48.57;100434.61;125819;1093;23534;-61
2021/07/23 10:28:06;;;;;;;12.93;3.80;;;;;;;24.24;48.69;100430.98;125901;1093;22776;-61
2021/07/23 10:30:43;;;;;;;12.53;3.83;;;;;;;24.27;48.64;100424.13;126050;1092;22861;-62
2021/07/23 10:33:49;;;;;;;15.88;4.45;;;;;;;24.33;49.04;100424.72;126019;1093;22800;-61
2021/07/23 10:36:39;;;;;;;11.18;3.95;;;;;;;24.41;48.85;100416.15;125828;1093;27195;-60
2021/07/23 10:39:19;;;;;;;11.58;3.78;;;;;;;24.43;48.63;100414.25;125780;1093;22874;-61
2021/07/23 10:42:33;;;;;;;13.65;4.53;;;;;;;24.51;48.13;100415.00;125992;1093;22725;-62
2021/07/23 10:45:06;;;;;;;10.70;3.73;;;;;;;24.54;47.67;100410.98;125827;1093;24439;-59
2021/07/23 10:47:42;;;;;;;11.30;3.50;;;;;;;24.54;47.26;100415.95;125986;1092;22804;-60
2021/07/23 10:50:36;;;;;;;12.65;3.23;;;;;;;24.48;47.38;100401.86;125908;1093;22776;-59
2021/07/23 10:53:35;;;;;;;11.78;4.00;;;;;;;24.53;47.76;100395.20;125843;1093;22773;-58
2021/07/23 10:56:07;;;;;;;11.13;3.45;;;;;;;24.66;48.06;100399.95;125891;1093;22761;-59
2021/07/23 10:58:39;;;;;;;10.18;3.83;;;;;;;24.79;48.05;100399.73;125780;1093;22941;-60
2021/07/23 11:01:10;;;;;;;13.28;5.00;;;;;;;24.85;47.21;100397.47;125880;1093;22797;-60
2021/07/23 11:04:02;;;;;;;12.83;3.95;;;;;;;24.86;47.52;100390.41;125841;1093;22935;-59
2021/07/23 11:06:37;;;;;;;11.73;3.90;;;;;;;24.89;46.92;100392.13;125814;1093;27189;-62
2021/07/23 11:09:15;;;;;;;11.80;3.95;;;;;;;24.91;47.07;100388.68;126015;1093;22761;-61
2021/07/23 11:11:47;;;;;;;13.20;4.10;;;;;;;24.99;47.36;100384.47;125842;1093;22780;-62
2021/07/23 11:14:22;;;;;;;11.80;3.98;;;;;;;25.09;47.66;100381.75;125855;1093;29121;-60
2021/07/23 11:17:05;;;;;;;12.38;4.10;;;;;;;25.20;47.42;100378.48;126055;1092;24614;-60
2021/07/23 11:19:39;;;;;;;13.53;4.25;;;;;;;25.29;47.07;100377.84;125862;1093;24480;-61
2021/07/23 11:22:22;;;;;;;13.53;4.13;;;;;;;25.38;46.67;100374.38;125766;1093;22765;-61
2021/07/23 11:24:57;;;;;;;13.37;4.33;;;;;;;25.45;46.09;100373.63;125956;1093;22820;-62
2021/07/23 11:27:30;;;;;;;14.23;4.03;;;;;;;25.45;45.57;100373.63;125878;1093;22803;-63
2021/07/23 11:30:12;;;;;;;15.40;4.10;;;;;;;25.47;45.94;100373.80;125988;1093;22917;-60
2021/07/23 11:32:55;;;;;;;13.70;4.53;;;;;;;25.47;45.32;100368.82;125819;1093;22769;-61
2021/07/23 11:35:29;;;;;;;14.25;3.93;;;;;;;25.47;45.04;100373.80;125911;1093;27223;-59
2021/07/23 11:38:11;;;;;;;12.67;4.77;;;;;;;25.45;44.48;100367.91;126099;1093;22785;-60